sensor_id;sensor_type;location;lat;lon;timestamp;P1;durP1;ratioP1;P2;durP2;ratioP2
8323;SDS011;4199;50.802;6.772;2023-09-12T00:02:04;7.93;;;5.47;;
8323;SDS011;4199;50.802;6.772;2023-09-12T00:04:30;8.13;;;5.00;;
8323;SDS011;4199;50.802;6.772;2023-09-12T00:06:57;10.10;;;4.90;;
8323;SDS011;4199;50.802;6.772;2023-09-12T00:09:23;7.27;;;4.87;;
8323;SDS011;4199;50.802;6.772;2023-09-12T00:11:49;11.37;;;4.83;;
8323;SDS011;4199;50.802;6.772;2023-09-12T00:14:16;6.20;;;4.60;;
8323;SDS011;4199;50.802;6.772;2023-09-12T00:16:43;9.13;;;5.03;;
8323;SDS011;4199;50.802;6.772;2023-09-12T00:19:10;7.27;;;4.73;;
8323;SDS011;4199;50.802;6.772;2023-09-12T00:21:36;6.40;;;4.90;;
8323;SDS011;4199;50.802;6.772;2023-09-12T00:24:02;5.93;;;4.93;;
8323;SDS011;4199;50.802;6.772;2023-09-12T00:26:29;6.20;;;4.70;;
8323;SDS011;4199;50.802;6.772;2023-09-12T00:28:56;7.87;;;4.97;;
8323;SDS011;4199;50.802;6.772;2023-09-12T00:31:23;7.87;;;5.10;;
8323;SDS011;4199;50.802;6.772;2023-09-12T00:33:49;5.97;;;5.00;;
8323;SDS011;4199;50.802;6.772;2023-09-12T00:36:16;8.53;;;5.27;;
8323;SDS011;4199;50.802;6.772;2023-09-12T00:38:42;6.10;;;5.00;;
8323;SDS011;4199;50.802;6.772;2023-09-12T00:41:08;7.93;;;5.40;;
8323;SDS011;4199;50.802;6.772;2023-09-12T00:43:35;5.90;;;4.83;;
8323;SDS011;4199;50.802;6.772;2023-09-12T00:46:01;6.27;;;4.90;;
8323;SDS011;4199;50.802;6.772;2023-09-12T00:48:27;5.77;;;5.17;;
8323;SDS011;4199;50.802;6.772;2023-09-12T00:50:54;7.97;;;5.10;;
8323;SDS011;4199;50.802;6.772;2023-09-12T00:53:21;5.80;;;5.00;;
8323;SDS011;4199;50.802;6.772;2023-09-12T00:55:50;7.50;;;4.90;;
8323;SDS011;4199;50.802;6.772;2023-09-12T00:58:17;5.73;;;5.03;;
8323;SDS011;4199;50.802;6.772;2023-09-12T01:00:44;5.77;;;5.20;;
8323;SDS011;4199;50.802;6.772;2023-09-12T01:03:10;6.07;;;5.47;;
8323;SDS011;4199;50.802;6.772;2023-09-12T01:05:37;10.83;;;5.80;;
8323;SDS011;4199;50.802;6.772;2023-09-12T01:08:03;8.90;;;5.37;;
8323;SDS011;4199;50.802;6.772;2023-09-12T01:10:30;7.47;;;6.23;;
8323;SDS011;4199;50.802;6.772;2023-09-12T01:12:56;6.37;;;5.30;;
8323;SDS011;4199;50.802;6.772;2023-09-12T01:15:22;7.57;;;5.50;;
8323;SDS011;4199;50.802;6.772;2023-09-12T01:17:49;8.73;;;6.30;;
8323;SDS011;4199;50.802;6.772;2023-09-12T01:20:28;8.53;;;5.67;;
8323;SDS011;4199;50.802;6.772;2023-09-12T01:22:58;7.63;;;5.63;;
8323;SDS011;4199;50.802;6.772;2023-09-12T01:27:52;9.57;;;6.37;;
8323;SDS011;4199;50.802;6.772;2023-09-12T01:30:21;9.67;;;6.47;;
8323;SDS011;4199;50.802;6.772;2023-09-12T01:32:48;8.80;;;6.33;;
8323;SDS011;4199;50.802;6.772;2023-09-12T01:35:15;9.50;;;6.67;;
8323;SDS011;4199;50.802;6.772;2023-09-12T01:37:41;8.90;;;6.40;;
8323;SDS011;4199;50.802;6.772;2023-09-12T01:40:08;8.00;;;6.43;;
8323;SDS011;4199;50.802;6.772;2023-09-12T01:42:37;7.80;;;6.40;;
8323;SDS011;4199;50.802;6.772;2023-09-12T01:45:04;7.63;;;6.70;;
8323;SDS011;4199;50.802;6.772;2023-09-12T01:47:31;8.97;;;6.50;;
8323;SDS011;4199;50.802;6.772;2023-09-12T01:49:57;8.60;;;6.60;;
8323;SDS011;4199;50.802;6.772;2023-09-12T01:52:25;7.87;;;7.00;;
8323;SDS011;4199;50.802;6.772;2023-09-12T01:54:51;9.43;;;7.13;;
8323;SDS011;4199;50.802;6.772;2023-09-12T01:57:18;9.17;;;7.47;;
8323;SDS011;4199;50.802;6.772;2023-09-12T01:59:47;7.63;;;6.90;;
8323;SDS011;4199;50.802;6.772;2023-09-12T02:02:18;8.93;;;7.10;;
8323;SDS011;4199;50.802;6.772;2023-09-12T02:04:46;8.63;;;6.90;;
8323;SDS011;4199;50.802;6.772;2023-09-12T02:07:17;9.70;;;7.37;;
8323;SDS011;4199;50.802;6.772;2023-09-12T02:09:43;11.70;;;7.87;;
8323;SDS011;4199;50.802;6.772;2023-09-12T02:12:09;10.97;;;8.07;;
8323;SDS011;4199;50.802;6.772;2023-09-12T02:14:36;8.70;;;7.30;;
8323;SDS011;4199;50.802;6.772;2023-09-12T02:17:02;9.67;;;7.30;;
8323;SDS011;4199;50.802;6.772;2023-09-12T02:19:29;8.97;;;7.37;;
8323;SDS011;4199;50.802;6.772;2023-09-12T02:21:55;8.60;;;7.70;;
8323;SDS011;4199;50.802;6.772;2023-09-12T02:24:21;12.27;;;7.40;;
8323;SDS011;4199;50.802;6.772;2023-09-12T02:26:48;9.43;;;7.43;;
8323;SDS011;4199;50.802;6.772;2023-09-12T02:29:14;10.23;;;7.77;;
8323;SDS011;4199;50.802;6.772;2023-09-12T02:31:40;10.10;;;7.70;;
8323;SDS011;4199;50.802;6.772;2023-09-12T02:34:07;9.03;;;7.97;;
8323;SDS011;4199;50.802;6.772;2023-09-12T02:36:33;9.30;;;8.30;;
8323;SDS011;4199;50.802;6.772;2023-09-12T02:39:00;13.63;;;8.60;;
8323;SDS011;4199;50.802;6.772;2023-09-12T02:41:26;10.30;;;8.50;;
8323;SDS011;4199;50.802;6.772;2023-09-12T02:43:52;9.37;;;8.37;;
8323;SDS011;4199;50.802;6.772;2023-09-12T02:46:18;9.67;;;8.60;;
8323;SDS011;4199;50.802;6.772;2023-09-12T02:48:45;10.57;;;9.27;;
8323;SDS011;4199;50.802;6.772;2023-09-12T02:51:11;10.43;;;9.27;;
8323;SDS011;4199;50.802;6.772;2023-09-12T02:53:38;10.50;;;8.77;;
8323;SDS011;4199;50.802;6.772;2023-09-12T02:56:04;16.27;;;9.27;;
8323;SDS011;4199;50.802;6.772;2023-09-12T02:58:31;12.40;;;9.93;;
8323;SDS011;4199;50.802;6.772;2023-09-12T03:00:57;15.03;;;9.53;;
8323;SDS011;4199;50.802;6.772;2023-09-12T03:03:23;11.57;;;9.83;;
8323;SDS011;4199;50.802;6.772;2023-09-12T03:05:59;16.13;;;11.27;;
8323;SDS011;4199;50.802;6.772;2023-09-12T03:08:26;14.63;;;10.87;;
8323;SDS011;4199;50.802;6.772;2023-09-12T03:10:54;14.33;;;10.20;;
8323;SDS011;4199;50.802;6.772;2023-09-12T03:13:22;17.00;;;12.23;;
8323;SDS011;4199;50.802;6.772;2023-09-12T03:15:48;14.27;;;11.67;;
8323;SDS011;4199;50.802;6.772;2023-09-12T03:18:14;14.73;;;10.93;;
8323;SDS011;4199;50.802;6.772;2023-09-12T03:20:41;17.50;;;11.80;;
8323;SDS011;4199;50.802;6.772;2023-09-12T03:23:07;13.70;;;10.80;;
8323;SDS011;4199;50.802;6.772;2023-09-12T03:25:39;19.30;;;13.27;;
8323;SDS011;4199;50.802;6.772;2023-09-12T03:28:06;16.10;;;12.30;;
8323;SDS011;4199;50.802;6.772;2023-09-12T03:30:33;15.97;;;12.23;;
8323;SDS011;4199;50.802;6.772;2023-09-12T03:33:00;15.80;;;12.20;;
8323;SDS011;4199;50.802;6.772;2023-09-12T03:35:27;21.20;;;12.97;;
8323;SDS011;4199;50.802;6.772;2023-09-12T03:37:54;16.73;;;13.43;;
8323;SDS011;4199;50.802;6.772;2023-09-12T03:40:20;17.47;;;12.70;;
8323;SDS011;4199;50.802;6.772;2023-09-12T03:42:47;14.77;;;12.43;;
8323;SDS011;4199;50.802;6.772;2023-09-12T03:45:13;15.00;;;13.40;;
8323;SDS011;4199;50.802;6.772;2023-09-12T03:47:40;17.30;;;13.57;;
8323;SDS011;4199;50.802;6.772;2023-09-12T03:50:06;17.60;;;13.70;;
8323;SDS011;4199;50.802;6.772;2023-09-12T03:52:33;16.63;;;13.93;;
8323;SDS011;4199;50.802;6.772;2023-09-12T03:54:59;15.70;;;13.17;;
8323;SDS011;4199;50.802;6.772;2023-09-12T03:57:27;17.13;;;14.10;;
8323;SDS011;4199;50.802;6.772;2023-09-12T03:59:53;17.87;;;13.57;;
8323;SDS011;4199;50.802;6.772;2023-09-12T04:02:19;16.57;;;13.97;;
8323;SDS011;4199;50.802;6.772;2023-09-12T04:04:46;30.73;;;24.60;;
8323;SDS011;4199;50.802;6.772;2023-09-12T04:07:12;28.50;;;25.07;;
8323;SDS011;4199;50.802;6.772;2023-09-12T04:09:39;20.90;;;17.17;;
8323;SDS011;4199;50.802;6.772;2023-09-12T04:12:05;16.37;;;14.47;;
8323;SDS011;4199;50.802;6.772;2023-09-12T04:14:33;18.53;;;14.33;;
8323;SDS011;4199;50.802;6.772;2023-09-12T04:16:59;17.37;;;13.37;;
8323;SDS011;4199;50.802;6.772;2023-09-12T04:19:25;19.17;;;13.97;;
8323;SDS011;4199;50.802;6.772;2023-09-12T04:21:52;15.30;;;13.50;;
8323;SDS011;4199;50.802;6.772;2023-09-12T04:24:18;18.43;;;14.07;;
8323;SDS011;4199;50.802;6.772;2023-09-12T04:26:44;19.53;;;14.83;;
8323;SDS011;4199;50.802;6.772;2023-09-12T04:29:11;18.90;;;15.37;;
8323;SDS011;4199;50.802;6.772;2023-09-12T04:31:37;16.80;;;14.17;;
8323;SDS011;4199;50.802;6.772;2023-09-12T04:34:04;17.70;;;13.83;;
8323;SDS011;4199;50.802;6.772;2023-09-12T04:36:30;17.40;;;14.63;;
8323;SDS011;4199;50.802;6.772;2023-09-12T04:38:57;15.73;;;13.67;;
8323;SDS011;4199;50.802;6.772;2023-09-12T04:41:23;17.03;;;14.70;;
8323;SDS011;4199;50.802;6.772;2023-09-12T04:43:50;16.57;;;14.00;;
8323;SDS011;4199;50.802;6.772;2023-09-12T04:46:16;40.87;;;34.83;;
8323;SDS011;4199;50.802;6.772;2023-09-12T04:48:42;37.60;;;31.10;;
8323;SDS011;4199;50.802;6.772;2023-09-12T04:51:10;43.63;;;37.90;;
8323;SDS011;4199;50.802;6.772;2023-09-12T04:53:36;18.27;;;15.37;;
8323;SDS011;4199;50.802;6.772;2023-09-12T04:56:03;17.03;;;14.53;;
8323;SDS011;4199;50.802;6.772;2023-09-12T04:58:30;15.87;;;14.13;;
8323;SDS011;4199;50.802;6.772;2023-09-12T05:00:56;17.70;;;14.83;;
8323;SDS011;4199;50.802;6.772;2023-09-12T05:03:22;20.23;;;16.30;;
8323;SDS011;4199;50.802;6.772;2023-09-12T05:05:52;21.50;;;16.03;;
8323;SDS011;4199;50.802;6.772;2023-09-12T05:08:19;19.47;;;15.93;;
8323;SDS011;4199;50.802;6.772;2023-09-12T05:10:45;20.93;;;15.40;;
8323;SDS011;4199;50.802;6.772;2023-09-12T05:13:12;19.90;;;15.70;;
8323;SDS011;4199;50.802;6.772;2023-09-12T05:15:39;21.23;;;16.33;;
8323;SDS011;4199;50.802;6.772;2023-09-12T05:18:06;20.30;;;16.40;;
8323;SDS011;4199;50.802;6.772;2023-09-12T05:20:32;20.00;;;16.50;;
8323;SDS011;4199;50.802;6.772;2023-09-12T05:22:59;20.70;;;17.13;;
8323;SDS011;4199;50.802;6.772;2023-09-12T05:25:25;22.23;;;17.80;;
8323;SDS011;4199;50.802;6.772;2023-09-12T05:27:53;24.83;;;17.40;;
8323;SDS011;4199;50.802;6.772;2023-09-12T05:30:19;22.57;;;16.60;;
8323;SDS011;4199;50.802;6.772;2023-09-12T05:32:45;21.90;;;16.53;;
8323;SDS011;4199;50.802;6.772;2023-09-12T05:35:12;19.77;;;15.80;;
8323;SDS011;4199;50.802;6.772;2023-09-12T05:37:47;20.63;;;16.77;;
8323;SDS011;4199;50.802;6.772;2023-09-12T05:40:14;22.43;;;15.77;;
8323;SDS011;4199;50.802;6.772;2023-09-12T05:42:40;21.83;;;16.77;;
8323;SDS011;4199;50.802;6.772;2023-09-12T05:45:06;46.63;;;37.27;;
8323;SDS011;4199;50.802;6.772;2023-09-12T05:47:33;21.03;;;18.57;;
8323;SDS011;4199;50.802;6.772;2023-09-12T05:49:59;21.40;;;15.83;;
8323;SDS011;4199;50.802;6.772;2023-09-12T05:52:27;25.67;;;16.40;;
8323;SDS011;4199;50.802;6.772;2023-09-12T05:54:53;21.80;;;16.53;;
8323;SDS011;4199;50.802;6.772;2023-09-12T05:57:19;43.70;;;36.20;;
8323;SDS011;4199;50.802;6.772;2023-09-12T05:59:47;29.27;;;19.63;;
8323;SDS011;4199;50.802;6.772;2023-09-12T06:02:14;21.43;;;17.40;;
8323;SDS011;4199;50.802;6.772;2023-09-12T06:04:40;21.73;;;18.40;;
8323;SDS011;4199;50.802;6.772;2023-09-12T06:07:06;21.70;;;16.80;;
8323;SDS011;4199;50.802;6.772;2023-09-12T06:09:33;24.73;;;18.43;;
8323;SDS011;4199;50.802;6.772;2023-09-12T06:11:59;24.93;;;17.73;;
8323;SDS011;4199;50.802;6.772;2023-09-12T06:14:25;24.13;;;20.77;;
8323;SDS011;4199;50.802;6.772;2023-09-12T06:16:52;24.03;;;16.33;;
8323;SDS011;4199;50.802;6.772;2023-09-12T06:19:19;27.57;;;17.00;;
8323;SDS011;4199;50.802;6.772;2023-09-12T06:21:46;23.70;;;17.23;;
8323;SDS011;4199;50.802;6.772;2023-09-12T06:24:16;20.57;;;15.30;;
8323;SDS011;4199;50.802;6.772;2023-09-12T06:26:42;23.40;;;15.40;;
8323;SDS011;4199;50.802;6.772;2023-09-12T06:29:09;23.73;;;16.77;;
8323;SDS011;4199;50.802;6.772;2023-09-12T06:31:35;22.90;;;16.00;;
8323;SDS011;4199;50.802;6.772;2023-09-12T06:34:02;21.87;;;16.10;;
8323;SDS011;4199;50.802;6.772;2023-09-12T06:36:28;29.80;;;22.90;;
8323;SDS011;4199;50.802;6.772;2023-09-12T06:38:56;24.40;;;17.03;;
8323;SDS011;4199;50.802;6.772;2023-09-12T06:41:22;23.53;;;16.17;;
8323;SDS011;4199;50.802;6.772;2023-09-12T06:43:48;22.53;;;16.60;;
8323;SDS011;4199;50.802;6.772;2023-09-12T06:46:15;26.10;;;16.17;;
8323;SDS011;4199;50.802;6.772;2023-09-12T06:48:44;22.67;;;16.80;;
8323;SDS011;4199;50.802;6.772;2023-09-12T06:51:11;21.17;;;15.57;;
8323;SDS011;4199;50.802;6.772;2023-09-12T06:53:43;22.08;;;16.23;;
8323;SDS011;4199;50.802;6.772;2023-09-12T06:56:10;20.55;;;17.17;;
8323;SDS011;4199;50.802;6.772;2023-09-12T06:58:36;22.97;;;15.83;;
8323;SDS011;4199;50.802;6.772;2023-09-12T07:01:04;22.30;;;17.93;;
8323;SDS011;4199;50.802;6.772;2023-09-12T07:03:34;23.00;;;17.48;;
8323;SDS011;4199;50.802;6.772;2023-09-12T07:06:01;22.70;;;17.23;;
8323;SDS011;4199;50.802;6.772;2023-09-12T07:08:30;25.07;;;17.50;;
8323;SDS011;4199;50.802;6.772;2023-09-12T07:10:56;25.03;;;16.87;;
8323;SDS011;4199;50.802;6.772;2023-09-12T07:13:23;24.00;;;17.55;;
8323;SDS011;4199;50.802;6.772;2023-09-12T07:15:50;25.67;;;17.08;;
8323;SDS011;4199;50.802;6.772;2023-09-12T07:18:16;21.08;;;16.25;;
8323;SDS011;4199;50.802;6.772;2023-09-12T07:20:43;21.30;;;16.10;;
8323;SDS011;4199;50.802;6.772;2023-09-12T07:23:09;21.00;;;16.20;;
8323;SDS011;4199;50.802;6.772;2023-09-12T07:25:39;18.05;;;16.05;;
8323;SDS011;4199;50.802;6.772;2023-09-12T07:28:09;20.27;;;15.80;;
8323;SDS011;4199;50.802;6.772;2023-09-12T07:30:35;21.85;;;15.90;;
8323;SDS011;4199;50.802;6.772;2023-09-12T07:33:03;22.67;;;15.95;;
8323;SDS011;4199;50.802;6.772;2023-09-12T07:35:30;22.13;;;14.77;;
8323;SDS011;4199;50.802;6.772;2023-09-12T07:37:57;19.83;;;15.10;;
8323;SDS011;4199;50.802;6.772;2023-09-12T07:40:23;19.65;;;15.25;;
8323;SDS011;4199;50.802;6.772;2023-09-12T07:42:49;18.45;;;16.00;;
8323;SDS011;4199;50.802;6.772;2023-09-12T07:45:16;17.75;;;14.43;;
8323;SDS011;4199;50.802;6.772;2023-09-12T07:47:42;21.02;;;15.02;;
8323;SDS011;4199;50.802;6.772;2023-09-12T07:50:09;18.13;;;14.10;;
8323;SDS011;4199;50.802;6.772;2023-09-12T07:52:35;17.55;;;14.32;;
8323;SDS011;4199;50.802;6.772;2023-09-12T07:55:02;32.53;;;29.10;;
8323;SDS011;4199;50.802;6.772;2023-09-12T07:57:29;25.77;;;19.80;;
8323;SDS011;4199;50.802;6.772;2023-09-12T07:59:56;16.45;;;14.25;;
8323;SDS011;4199;50.802;6.772;2023-09-12T08:02:22;19.52;;;14.48;;
8323;SDS011;4199;50.802;6.772;2023-09-12T08:04:49;16.65;;;13.50;;
8323;SDS011;4199;50.802;6.772;2023-09-12T08:07:22;15.40;;;11.95;;
8323;SDS011;4199;50.802;6.772;2023-09-12T08:09:55;14.82;;;11.65;;
8323;SDS011;4199;50.802;6.772;2023-09-12T08:12:23;17.25;;;10.55;;
8323;SDS011;4199;50.802;6.772;2023-09-12T08:14:50;13.25;;;9.88;;
8323;SDS011;4199;50.802;6.772;2023-09-12T08:17:17;15.48;;;11.07;;
8323;SDS011;4199;50.802;6.772;2023-09-12T08:19:43;17.85;;;11.35;;
8323;SDS011;4199;50.802;6.772;2023-09-12T08:22:10;11.93;;;9.77;;
8323;SDS011;4199;50.802;6.772;2023-09-12T08:24:36;14.23;;;10.05;;
8323;SDS011;4199;50.802;6.772;2023-09-12T08:27:03;12.55;;;10.10;;
8323;SDS011;4199;50.802;6.772;2023-09-12T08:29:31;12.80;;;9.43;;
8323;SDS011;4199;50.802;6.772;2023-09-12T08:31:58;12.68;;;10.02;;
8323;SDS011;4199;50.802;6.772;2023-09-12T08:34:25;12.82;;;9.30;;
8323;SDS011;4199;50.802;6.772;2023-09-12T08:36:51;12.75;;;9.80;;
8323;SDS011;4199;50.802;6.772;2023-09-12T08:39:22;11.80;;;9.48;;
8323;SDS011;4199;50.802;6.772;2023-09-12T08:41:49;12.52;;;9.48;;
8323;SDS011;4199;50.802;6.772;2023-09-12T08:44:15;31.27;;;27.98;;
8323;SDS011;4199;50.802;6.772;2023-09-12T08:46:42;15.30;;;10.80;;
8323;SDS011;4199;50.802;6.772;2023-09-12T08:49:08;15.13;;;10.40;;
8323;SDS011;4199;50.802;6.772;2023-09-12T08:51:39;14.65;;;11.73;;
8323;SDS011;4199;50.802;6.772;2023-09-12T08:54:06;15.55;;;11.60;;
8323;SDS011;4199;50.802;6.772;2023-09-12T08:56:34;11.63;;;10.43;;
8323;SDS011;4199;50.802;6.772;2023-09-12T08:59:01;12.43;;;11.13;;
8323;SDS011;4199;50.802;6.772;2023-09-12T09:01:29;13.00;;;10.50;;
8323;SDS011;4199;50.802;6.772;2023-09-12T09:03:56;12.45;;;10.73;;
8323;SDS011;4199;50.802;6.772;2023-09-12T09:06:23;14.55;;;10.90;;
8323;SDS011;4199;50.802;6.772;2023-09-12T09:08:50;20.10;;;16.13;;
8323;SDS011;4199;50.802;6.772;2023-09-12T09:11:17;12.43;;;10.98;;
8323;SDS011;4199;50.802;6.772;2023-09-12T09:13:43;14.90;;;11.48;;
8323;SDS011;4199;50.802;6.772;2023-09-12T09:16:13;13.30;;;11.90;;
8323;SDS011;4199;50.802;6.772;2023-09-12T09:21:19;14.48;;;10.77;;
8323;SDS011;4199;50.802;6.772;2023-09-12T09:23:46;13.23;;;10.57;;
8323;SDS011;4199;50.802;6.772;2023-09-12T09:26:13;13.38;;;9.60;;
8323;SDS011;4199;50.802;6.772;2023-09-12T09:28:39;9.95;;;8.95;;
8323;SDS011;4199;50.802;6.772;2023-09-12T09:31:10;11.88;;;8.73;;
8323;SDS011;4199;50.802;6.772;2023-09-12T09:33:36;8.63;;;7.85;;
8323;SDS011;4199;50.802;6.772;2023-09-12T09:36:03;8.13;;;7.32;;
8323;SDS011;4199;50.802;6.772;2023-09-12T09:38:30;7.43;;;6.72;;
8323;SDS011;4199;50.802;6.772;2023-09-12T09:40:56;10.55;;;7.93;;
8323;SDS011;4199;50.802;6.772;2023-09-12T09:43:23;10.60;;;8.07;;
8323;SDS011;4199;50.802;6.772;2023-09-12T09:45:51;11.20;;;9.07;;
8323;SDS011;4199;50.802;6.772;2023-09-12T09:48:18;9.70;;;8.70;;
8323;SDS011;4199;50.802;6.772;2023-09-12T09:50:45;10.45;;;9.25;;
8323;SDS011;4199;50.802;6.772;2023-09-12T09:53:11;10.73;;;9.40;;
8323;SDS011;4199;50.802;6.772;2023-09-12T09:55:37;13.15;;;8.82;;
8323;SDS011;4199;50.802;6.772;2023-09-12T09:58:07;11.05;;;8.40;;
8323;SDS011;4199;50.802;6.772;2023-09-12T10:00:34;10.15;;;8.93;;
8323;SDS011;4199;50.802;6.772;2023-09-12T10:03:00;12.82;;;8.90;;
8323;SDS011;4199;50.802;6.772;2023-09-12T10:05:28;9.88;;;8.82;;
8323;SDS011;4199;50.802;6.772;2023-09-12T10:07:57;11.18;;;8.30;;
8323;SDS011;4199;50.802;6.772;2023-09-12T10:10:24;8.25;;;7.28;;
8323;SDS011;4199;50.802;6.772;2023-09-12T10:12:57;7.53;;;6.82;;
8323;SDS011;4199;50.802;6.772;2023-09-12T10:15:25;7.95;;;6.65;;
8323;SDS011;4199;50.802;6.772;2023-09-12T10:17:56;10.32;;;7.85;;
8323;SDS011;4199;50.802;6.772;2023-09-12T10:20:24;8.02;;;7.18;;
8323;SDS011;4199;50.802;6.772;2023-09-12T10:23:07;8.45;;;7.28;;
8323;SDS011;4199;50.802;6.772;2023-09-12T10:25:37;7.55;;;6.65;;
8323;SDS011;4199;50.802;6.772;2023-09-12T10:28:04;8.75;;;7.35;;
8323;SDS011;4199;50.802;6.772;2023-09-12T10:30:32;9.68;;;7.25;;
8323;SDS011;4199;50.802;6.772;2023-09-12T10:33:00;12.02;;;7.10;;
8323;SDS011;4199;50.802;6.772;2023-09-12T10:35:26;8.10;;;7.40;;
8323;SDS011;4199;50.802;6.772;2023-09-12T10:37:53;8.15;;;6.97;;
8323;SDS011;4199;50.802;6.772;2023-09-12T10:40:20;9.05;;;7.80;;
8323;SDS011;4199;50.802;6.772;2023-09-12T10:42:51;8.88;;;8.07;;
8323;SDS011;4199;50.802;6.772;2023-09-12T10:45:18;8.65;;;7.82;;
8323;SDS011;4199;50.802;6.772;2023-09-12T10:47:45;10.77;;;8.35;;
8323;SDS011;4199;50.802;6.772;2023-09-12T10:50:13;8.48;;;7.78;;
8323;SDS011;4199;50.802;6.772;2023-09-12T10:52:40;8.95;;;8.02;;
8323;SDS011;4199;50.802;6.772;2023-09-12T10:55:07;9.73;;;8.73;;
8323;SDS011;4199;50.802;6.772;2023-09-12T10:57:33;8.18;;;7.15;;
8323;SDS011;4199;50.802;6.772;2023-09-12T11:04:57;13.32;;;12.13;;
8323;SDS011;4199;50.802;6.772;2023-09-12T11:12:58;8.13;;;7.30;;
8323;SDS011;4199;50.802;6.772;2023-09-12T11:15:25;8.73;;;7.00;;
8323;SDS011;4199;50.802;6.772;2023-09-12T11:18:02;7.70;;;6.90;;
8323;SDS011;4199;50.802;6.772;2023-09-12T11:23:15;7.22;;;6.40;;
8323;SDS011;4199;50.802;6.772;2023-09-12T11:25:41;7.88;;;6.05;;
8323;SDS011;4199;50.802;6.772;2023-09-12T11:28:08;7.50;;;6.80;;
8323;SDS011;4199;50.802;6.772;2023-09-12T11:30:34;7.13;;;6.53;;
8323;SDS011;4199;50.802;6.772;2023-09-12T11:33:04;8.70;;;6.20;;
8323;SDS011;4199;50.802;6.772;2023-09-12T11:35:35;6.07;;;4.88;;
8323;SDS011;4199;50.802;6.772;2023-09-12T11:38:02;8.48;;;6.05;;
8323;SDS011;4199;50.802;6.772;2023-09-12T11:43:01;6.55;;;4.95;;
8323;SDS011;4199;50.802;6.772;2023-09-12T11:45:28;5.22;;;4.72;;
8323;SDS011;4199;50.802;6.772;2023-09-12T11:47:54;5.10;;;4.60;;
8323;SDS011;4199;50.802;6.772;2023-09-12T11:53:03;5.80;;;5.25;;
8323;SDS011;4199;50.802;6.772;2023-09-12T11:58:02;7.88;;;5.00;;
8323;SDS011;4199;50.802;6.772;2023-09-12T12:00:29;4.90;;;4.05;;
8323;SDS011;4199;50.802;6.772;2023-09-12T12:02:55;3.70;;;3.30;;
8323;SDS011;4199;50.802;6.772;2023-09-12T12:05:22;4.68;;;4.03;;
8323;SDS011;4199;50.802;6.772;2023-09-12T12:07:49;3.85;;;3.33;;
8323;SDS011;4199;50.802;6.772;2023-09-12T12:10:16;5.18;;;3.90;;
8323;SDS011;4199;50.802;6.772;2023-09-12T12:12:45;4.40;;;3.55;;
8323;SDS011;4199;50.802;6.772;2023-09-12T12:15:13;4.50;;;4.05;;
8323;SDS011;4199;50.802;6.772;2023-09-12T12:17:42;4.93;;;3.90;;
8323;SDS011;4199;50.802;6.772;2023-09-12T12:20:09;4.68;;;3.78;;
8323;SDS011;4199;50.802;6.772;2023-09-12T12:22:37;5.55;;;3.80;;
8323;SDS011;4199;50.802;6.772;2023-09-12T12:25:11;4.30;;;3.90;;
8323;SDS011;4199;50.802;6.772;2023-09-12T12:27:38;5.75;;;4.53;;
8323;SDS011;4199;50.802;6.772;2023-09-12T12:30:06;6.82;;;4.13;;
8323;SDS011;4199;50.802;6.772;2023-09-12T12:32:33;5.68;;;4.50;;
8323;SDS011;4199;50.802;6.772;2023-09-12T12:34:59;6.35;;;5.20;;
8323;SDS011;4199;50.802;6.772;2023-09-12T12:37:47;5.90;;;4.63;;
8323;SDS011;4199;50.802;6.772;2023-09-12T12:40:20;7.35;;;4.15;;
8323;SDS011;4199;50.802;6.772;2023-09-12T12:42:46;6.97;;;5.30;;
8323;SDS011;4199;50.802;6.772;2023-09-12T12:45:22;7.53;;;5.15;;
8323;SDS011;4199;50.802;6.772;2023-09-12T12:47:59;6.13;;;5.30;;
8323;SDS011;4199;50.802;6.772;2023-09-12T12:50:29;6.47;;;5.75;;
8323;SDS011;4199;50.802;6.772;2023-09-12T12:52:56;6.65;;;5.45;;
8323;SDS011;4199;50.802;6.772;2023-09-12T12:55:22;19.45;;;17.55;;
8323;SDS011;4199;50.802;6.772;2023-09-12T12:57:51;6.07;;;5.47;;
8323;SDS011;4199;50.802;6.772;2023-09-12T13:00:18;6.32;;;5.72;;
8323;SDS011;4199;50.802;6.772;2023-09-12T13:02:45;6.43;;;5.43;;
8323;SDS011;4199;50.802;6.772;2023-09-12T13:05:25;6.88;;;6.15;;
8323;SDS011;4199;50.802;6.772;2023-09-12T13:07:51;9.85;;;6.30;;
8323;SDS011;4199;50.802;6.772;2023-09-12T13:10:18;8.88;;;6.63;;
8323;SDS011;4199;50.802;6.772;2023-09-12T13:12:45;6.75;;;6.05;;
8323;SDS011;4199;50.802;6.772;2023-09-12T13:15:14;6.30;;;5.70;;
8323;SDS011;4199;50.802;6.772;2023-09-12T13:17:41;7.57;;;5.38;;
8323;SDS011;4199;50.802;6.772;2023-09-12T13:20:08;6.32;;;4.93;;
8323;SDS011;4199;50.802;6.772;2023-09-12T13:22:35;5.85;;;5.13;;
8323;SDS011;4199;50.802;6.772;2023-09-12T13:25:01;6.20;;;5.32;;
8323;SDS011;4199;50.802;6.772;2023-09-12T13:27:28;6.00;;;5.40;;
8323;SDS011;4199;50.802;6.772;2023-09-12T13:29:55;6.63;;;5.90;;
8323;SDS011;4199;50.802;6.772;2023-09-12T13:32:25;6.43;;;5.32;;
8323;SDS011;4199;50.802;6.772;2023-09-12T13:34:52;7.50;;;6.15;;
8323;SDS011;4199;50.802;6.772;2023-09-12T13:37:18;7.95;;;5.93;;
8323;SDS011;4199;50.802;6.772;2023-09-12T13:39:45;6.03;;;5.38;;
8323;SDS011;4199;50.802;6.772;2023-09-12T13:42:16;7.53;;;5.72;;
8323;SDS011;4199;50.802;6.772;2023-09-12T13:44:47;7.43;;;4.90;;
8323;SDS011;4199;50.802;6.772;2023-09-12T13:47:13;6.05;;;5.22;;
8323;SDS011;4199;50.802;6.772;2023-09-12T13:49:47;5.72;;;5.13;;
8323;SDS011;4199;50.802;6.772;2023-09-12T13:52:14;7.88;;;5.60;;
8323;SDS011;4199;50.802;6.772;2023-09-12T13:54:43;6.22;;;5.10;;
8323;SDS011;4199;50.802;6.772;2023-09-12T13:57:09;9.07;;;6.22;;
8323;SDS011;4199;50.802;6.772;2023-09-12T13:59:36;7.43;;;6.03;;
8323;SDS011;4199;50.802;6.772;2023-09-12T14:02:11;11.88;;;7.43;;
8323;SDS011;4199;50.802;6.772;2023-09-12T14:04:38;6.55;;;5.95;;
8323;SDS011;4199;50.802;6.772;2023-09-12T14:07:07;7.55;;;6.53;;
8323;SDS011;4199;50.802;6.772;2023-09-12T14:09:33;7.18;;;6.03;;
8323;SDS011;4199;50.802;6.772;2023-09-12T14:12:00;9.45;;;6.45;;
8323;SDS011;4199;50.802;6.772;2023-09-12T14:14:27;7.80;;;6.40;;
8323;SDS011;4199;50.802;6.772;2023-09-12T14:16:54;7.85;;;6.05;;
8323;SDS011;4199;50.802;6.772;2023-09-12T14:19:20;8.13;;;5.40;;
8323;SDS011;4199;50.802;6.772;2023-09-12T14:21:48;6.40;;;5.57;;
8323;SDS011;4199;50.802;6.772;2023-09-12T14:24:15;8.15;;;6.43;;
8323;SDS011;4199;50.802;6.772;2023-09-12T14:26:43;6.32;;;5.63;;
8323;SDS011;4199;50.802;6.772;2023-09-12T14:29:11;6.28;;;5.47;;
8323;SDS011;4199;50.802;6.772;2023-09-12T14:31:37;6.93;;;5.22;;
8323;SDS011;4199;50.802;6.772;2023-09-12T14:34:04;6.28;;;5.57;;
8323;SDS011;4199;50.802;6.772;2023-09-12T14:36:32;7.97;;;5.35;;
8323;SDS011;4199;50.802;6.772;2023-09-12T14:38:59;5.60;;;5.10;;
8323;SDS011;4199;50.802;6.772;2023-09-12T14:41:25;8.65;;;7.82;;
8323;SDS011;4199;50.802;6.772;2023-09-12T14:43:51;21.00;;;19.00;;
8323;SDS011;4199;50.802;6.772;2023-09-12T14:46:18;7.65;;;5.65;;
8323;SDS011;4199;50.802;6.772;2023-09-12T14:48:44;5.38;;;4.97;;
8323;SDS011;4199;50.802;6.772;2023-09-12T14:51:23;6.43;;;4.97;;
8323;SDS011;4199;50.802;6.772;2023-09-12T14:53:58;5.72;;;4.90;;
8323;SDS011;4199;50.802;6.772;2023-09-12T14:56:25;5.82;;;5.25;;
8323;SDS011;4199;50.802;6.772;2023-09-12T14:58:51;5.60;;;5.10;;
8323;SDS011;4199;50.802;6.772;2023-09-12T15:01:17;8.30;;;5.53;;
8323;SDS011;4199;50.802;6.772;2023-09-12T15:03:44;6.50;;;5.90;;
8323;SDS011;4199;50.802;6.772;2023-09-12T15:06:11;6.55;;;5.80;;
8323;SDS011;4199;50.802;6.772;2023-09-12T15:08:37;7.00;;;5.60;;
8323;SDS011;4199;50.802;6.772;2023-09-12T15:11:03;6.38;;;5.60;;
8323;SDS011;4199;50.802;6.772;2023-09-12T15:13:31;7.97;;;5.70;;
8323;SDS011;4199;50.802;6.772;2023-09-12T15:15:58;7.25;;;5.60;;
8323;SDS011;4199;50.802;6.772;2023-09-12T15:18:25;6.53;;;5.25;;
8323;SDS011;4199;50.802;6.772;2023-09-12T15:20:52;7.60;;;4.85;;
8323;SDS011;4199;50.802;6.772;2023-09-12T15:23:19;6.88;;;4.85;;
8323;SDS011;4199;50.802;6.772;2023-09-12T15:25:45;5.75;;;5.05;;
8323;SDS011;4199;50.802;6.772;2023-09-12T15:28:11;9.02;;;5.68;;
8323;SDS011;4199;50.802;6.772;2023-09-12T15:30:38;6.00;;;5.40;;